Elm City, North Carolina
Current Conditions -  °F | °C
As of 10:53 AM on Wednesday 26 Nov 2014 (Local Time) from KRWI Reporting Station
Light Rain Light Rain  
Wind Chill: 40°   Ceiling: 1400
Heat Index: 46°   Visibility: 4mi
Dew Point: 43°   Wind: 14mph
Humidity: 89%   Direction: 360°N
Pressure: 29.88"   Gusts: 31mph
Location:  35.81°N, 77.86°W
Report Text: KRWI 261553Z AUTO 36012G27KT 4SM -RA BR FEW009 OVC014 08/06 A2988 RMK AO2 PK WND 34029/1509 SLP117 P0013 T00780061
Loading
Personal Weather Stations






























Interactive Weather Map New forecast layout! Learn more

10-Day Weather Forecast

Advertisements
Track Severe Weather on mobile